sensor_id;sensor_type;location;lat;lon;timestamp;temperature;humidity
53904;DHT22;39812;52.430;16.936;2023-03-14T00:02:22;12.20;99.90
53904;DHT22;39812;52.430;16.936;2023-03-14T00:04:48;12.30;99.90
53904;DHT22;39812;52.430;16.936;2023-03-14T00:07:14;12.40;99.90
53904;DHT22;39812;52.430;16.936;2023-03-14T00:09:40;12.40;99.90
53904;DHT22;39812;52.430;16.936;2023-03-14T00:12:06;12.40;99.90
53904;DHT22;39812;52.430;16.936;2023-03-14T00:14:33;12.40;99.90
53904;DHT22;39812;52.430;16.936;2023-03-14T00:16:59;12.40;99.90
53904;DHT22;39812;52.430;16.936;2023-03-14T00:19:24;12.40;99.90
53904;DHT22;39812;52.430;16.936;2023-03-14T00:21:50;12.30;99.90
53904;DHT22;39812;52.430;16.936;2023-03-14T00:24:16;12.30;99.90
53904;DHT22;39812;52.430;16.936;2023-03-14T00:26:41;12.30;99.90
53904;DHT22;39812;52.430;16.936;2023-03-14T00:29:07;12.30;99.90
53904;DHT22;39812;52.430;16.936;2023-03-14T00:31:33;12.30;99.90
53904;DHT22;39812;52.430;16.936;2023-03-14T00:34:00;12.30;99.90
53904;DHT22;39812;52.430;16.936;2023-03-14T00:36:26;12.30;99.90
53904;DHT22;39812;52.430;16.936;2023-03-14T00:38:53;12.20;99.90
53904;DHT22;39812;52.430;16.936;2023-03-14T00:41:21;12.20;99.90
53904;DHT22;39812;52.430;16.936;2023-03-14T00:43:50;12.30;99.90
53904;DHT22;39812;52.430;16.936;2023-03-14T00:46:16;12.30;99.90
53904;DHT22;39812;52.430;16.936;2023-03-14T00:48:42;12.30;99.90
53904;DHT22;39812;52.430;16.936;2023-03-14T00:51:09;12.40;99.90
53904;DHT22;39812;52.430;16.936;2023-03-14T00:53:37;12.30;99.90
53904;DHT22;39812;52.430;16.936;2023-03-14T00:56:06;12.40;99.90
53904;DHT22;39812;52.430;16.936;2023-03-14T00:58:32;12.40;99.90
53904;DHT22;39812;52.430;16.936;2023-03-14T01:00:58;12.40;99.90
53904;DHT22;39812;52.430;16.936;2023-03-14T01:03:24;12.40;99.90
53904;DHT22;39812;52.430;16.936;2023-03-14T01:05:50;12.40;99.90
53904;DHT22;39812;52.430;16.936;2023-03-14T01:08:16;12.50;99.90
53904;DHT22;39812;52.430;16.936;2023-03-14T01:10:42;12.40;99.90
53904;DHT22;39812;52.430;16.936;2023-03-14T01:13:08;12.50;99.90
53904;DHT22;39812;52.430;16.936;2023-03-14T01:15:35;12.50;99.90
53904;DHT22;39812;52.430;16.936;2023-03-14T01:18:01;12.40;99.90
53904;DHT22;39812;52.430;16.936;2023-03-14T01:20:26;12.40;99.90
53904;DHT22;39812;52.430;16.936;2023-03-14T01:22:52;12.30;99.90
53904;DHT22;39812;52.430;16.936;2023-03-14T01:25:18;12.40;99.90
53904;DHT22;39812;52.430;16.936;2023-03-14T01:27:44;12.40;99.90
53904;DHT22;39812;52.430;16.936;2023-03-14T01:30:11;12.40;99.90
53904;DHT22;39812;52.430;16.936;2023-03-14T01:32:38;12.40;99.90
53904;DHT22;39812;52.430;16.936;2023-03-14T01:35:04;12.40;99.90
53904;DHT22;39812;52.430;16.936;2023-03-14T01:37:30;12.50;99.90
53904;DHT22;39812;52.430;16.936;2023-03-14T01:39:56;12.50;99.90
53904;DHT22;39812;52.430;16.936;2023-03-14T01:42:21;12.60;99.90
53904;DHT22;39812;52.430;16.936;2023-03-14T01:44:53;12.50;99.90
53904;DHT22;39812;52.430;16.936;2023-03-14T01:47:20;12.50;99.90
53904;DHT22;39812;52.430;16.936;2023-03-14T01:49:48;12.40;99.90
53904;DHT22;39812;52.430;16.936;2023-03-14T01:54:51;12.30;99.90
53904;DHT22;39812;52.430;16.936;2023-03-14T01:57:39;12.30;99.90
53904;DHT22;39812;52.430;16.936;2023-03-14T02:00:11;12.20;99.90
53904;DHT22;39812;52.430;16.936;2023-03-14T02:03:12;12.20;99.90
53904;DHT22;39812;52.430;16.936;2023-03-14T02:05:40;12.30;99.90
53904;DHT22;39812;52.430;16.936;2023-03-14T02:08:10;12.30;99.90
53904;DHT22;39812;52.430;16.936;2023-03-14T02:10:39;12.20;99.90
53904;DHT22;39812;52.430;16.936;2023-03-14T02:13:06;12.20;99.90
53904;DHT22;39812;52.430;16.936;2023-03-14T02:15:32;12.20;99.90
53904;DHT22;39812;52.430;16.936;2023-03-14T02:17:59;12.10;99.90
53904;DHT22;39812;52.430;16.936;2023-03-14T02:20:40;12.10;99.90
53904;DHT22;39812;52.430;16.936;2023-03-14T02:23:09;12.00;99.90
53904;DHT22;39812;52.430;16.936;2023-03-14T02:25:43;11.90;99.90
53904;DHT22;39812;52.430;16.936;2023-03-14T02:28:11;11.90;99.90
53904;DHT22;39812;52.430;16.936;2023-03-14T02:30:38;11.80;99.90
53904;DHT22;39812;52.430;16.936;2023-03-14T02:33:15;11.80;99.90
53904;DHT22;39812;52.430;16.936;2023-03-14T02:35:43;11.70;99.90
53904;DHT22;39812;52.430;16.936;2023-03-14T02:38:36;11.60;99.90
53904;DHT22;39812;52.430;16.936;2023-03-14T02:41:03;11.50;99.90
53904;DHT22;39812;52.430;16.936;2023-03-14T02:43:29;11.50;99.90
53904;DHT22;39812;52.430;16.936;2023-03-14T02:45:55;11.40;99.90
53904;DHT22;39812;52.430;16.936;2023-03-14T02:48:33;11.40;99.90
53904;DHT22;39812;52.430;16.936;2023-03-14T02:51:01;11.40;99.90
53904;DHT22;39812;52.430;16.936;2023-03-14T02:53:32;11.30;99.90
53904;DHT22;39812;52.430;16.936;2023-03-14T02:55:59;11.30;99.90
53904;DHT22;39812;52.430;16.936;2023-03-14T02:58:25;11.30;99.90
53904;DHT22;39812;52.430;16.936;2023-03-14T03:00:51;11.30;99.90
53904;DHT22;39812;52.430;16.936;2023-03-14T03:03:17;11.30;99.90
53904;DHT22;39812;52.430;16.936;2023-03-14T03:05:43;11.30;99.90
53904;DHT22;39812;52.430;16.936;2023-03-14T03:08:09;11.20;99.90
53904;DHT22;39812;52.430;16.936;2023-03-14T03:10:37;11.20;99.90
53904;DHT22;39812;52.430;16.936;2023-03-14T03:13:03;11.10;99.90
53904;DHT22;39812;52.430;16.936;2023-03-14T03:15:29;11.10;99.90
53904;DHT22;39812;52.430;16.936;2023-03-14T03:17:54;11.10;99.90
53904;DHT22;39812;52.430;16.936;2023-03-14T03:20:20;11.10;99.90
53904;DHT22;39812;52.430;16.936;2023-03-14T03:22:46;11.10;99.90
53904;DHT22;39812;52.430;16.936;2023-03-14T03:25:11;11.10;99.90
53904;DHT22;39812;52.430;16.936;2023-03-14T03:27:37;11.10;99.90
53904;DHT22;39812;52.430;16.936;2023-03-14T03:30:04;11.10;99.90
53904;DHT22;39812;52.430;16.936;2023-03-14T03:32:31;11.00;99.90
53904;DHT22;39812;52.430;16.936;2023-03-14T03:34:57;11.00;99.90
53904;DHT22;39812;52.430;16.936;2023-03-14T03:37:22;11.00;99.90
53904;DHT22;39812;52.430;16.936;2023-03-14T03:39:50;10.90;99.90
53904;DHT22;39812;52.430;16.936;2023-03-14T03:42:16;10.90;99.90
53904;DHT22;39812;52.430;16.936;2023-03-14T03:44:42;10.80;99.90
53904;DHT22;39812;52.430;16.936;2023-03-14T03:47:07;10.90;99.90
53904;DHT22;39812;52.430;16.936;2023-03-14T03:49:33;10.80;99.90
53904;DHT22;39812;52.430;16.936;2023-03-14T03:51:59;10.80;99.90
53904;DHT22;39812;52.430;16.936;2023-03-14T03:54:25;10.70;99.90
53904;DHT22;39812;52.430;16.936;2023-03-14T03:56:52;10.70;99.90
53904;DHT22;39812;52.430;16.936;2023-03-14T03:59:18;10.70;99.90
53904;DHT22;39812;52.430;16.936;2023-03-14T04:01:43;10.60;99.90
53904;DHT22;39812;52.430;16.936;2023-03-14T04:04:09;10.50;99.90
53904;DHT22;39812;52.430;16.936;2023-03-14T04:06:35;10.40;99.90
53904;DHT22;39812;52.430;16.936;2023-03-14T04:09:02;10.30;99.90
53904;DHT22;39812;52.430;16.936;2023-03-14T04:11:28;10.20;99.90
53904;DHT22;39812;52.430;16.936;2023-03-14T04:13:54;10.10;99.90
53904;DHT22;39812;52.430;16.936;2023-03-14T04:16:22;10.10;99.90
53904;DHT22;39812;52.430;16.936;2023-03-14T04:18:48;10.00;99.90
53904;DHT22;39812;52.430;16.936;2023-03-14T04:21:14;9.90;99.90
53904;DHT22;39812;52.430;16.936;2023-03-14T04:23:40;9.80;99.90
53904;DHT22;39812;52.430;16.936;2023-03-14T04:26:06;9.80;99.90
53904;DHT22;39812;52.430;16.936;2023-03-14T04:28:32;9.80;99.90
53904;DHT22;39812;52.430;16.936;2023-03-14T04:30:57;9.70;99.90
53904;DHT22;39812;52.430;16.936;2023-03-14T04:33:23;9.70;99.90
53904;DHT22;39812;52.430;16.936;2023-03-14T04:35:53;9.60;99.90
53904;DHT22;39812;52.430;16.936;2023-03-14T04:38:19;9.50;99.90
53904;DHT22;39812;52.430;16.936;2023-03-14T04:40:45;9.50;99.90
53904;DHT22;39812;52.430;16.936;2023-03-14T04:43:11;9.40;99.90
53904;DHT22;39812;52.430;16.936;2023-03-14T04:45:41;9.40;99.90
53904;DHT22;39812;52.430;16.936;2023-03-14T04:48:06;9.40;99.90
53904;DHT22;39812;52.430;16.936;2023-03-14T04:50:32;9.30;99.90
53904;DHT22;39812;52.430;16.936;2023-03-14T04:52:58;9.30;99.90
53904;DHT22;39812;52.430;16.936;2023-03-14T04:55:23;9.20;99.90
53904;DHT22;39812;52.430;16.936;2023-03-14T04:57:49;9.30;99.90
53904;DHT22;39812;52.430;16.936;2023-03-14T05:00:15;9.20;99.90
53904;DHT22;39812;52.430;16.936;2023-03-14T05:02:44;9.20;99.90
53904;DHT22;39812;52.430;16.936;2023-03-14T05:05:09;9.20;99.90
53904;DHT22;39812;52.430;16.936;2023-03-14T05:07:35;9.20;99.90
53904;DHT22;39812;52.430;16.936;2023-03-14T05:10:01;9.20;99.90
53904;DHT22;39812;52.430;16.936;2023-03-14T05:12:27;9.30;99.90
53904;DHT22;39812;52.430;16.936;2023-03-14T05:14:53;9.30;99.90
53904;DHT22;39812;52.430;16.936;2023-03-14T05:17:18;9.20;99.90
53904;DHT22;39812;52.430;16.936;2023-03-14T05:19:44;9.20;99.90
53904;DHT22;39812;52.430;16.936;2023-03-14T05:22:10;9.20;99.90
53904;DHT22;39812;52.430;16.936;2023-03-14T05:24:36;9.30;99.90
53904;DHT22;39812;52.430;16.936;2023-03-14T05:27:03;9.20;99.90
53904;DHT22;39812;52.430;16.936;2023-03-14T05:29:28;9.20;99.90
53904;DHT22;39812;52.430;16.936;2023-03-14T05:31:54;9.20;99.90
53904;DHT22;39812;52.430;16.936;2023-03-14T05:34:20;9.20;99.90
53904;DHT22;39812;52.430;16.936;2023-03-14T05:36:45;9.20;99.90
53904;DHT22;39812;52.430;16.936;2023-03-14T05:39:11;9.20;99.90
53904;DHT22;39812;52.430;16.936;2023-03-14T05:41:37;9.20;99.90
53904;DHT22;39812;52.430;16.936;2023-03-14T05:44:02;9.20;99.90
53904;DHT22;39812;52.430;16.936;2023-03-14T05:46:28;9.20;99.90
53904;DHT22;39812;52.430;16.936;2023-03-14T05:48:59;9.20;99.90
53904;DHT22;39812;52.430;16.936;2023-03-14T05:51:25;9.20;99.90
53904;DHT22;39812;52.430;16.936;2023-03-14T05:53:51;9.30;99.90
53904;DHT22;39812;52.430;16.936;2023-03-14T05:56:17;9.30;99.90
53904;DHT22;39812;52.430;16.936;2023-03-14T05:58:42;9.40;99.90
53904;DHT22;39812;52.430;16.936;2023-03-14T06:01:08;9.40;99.90
53904;DHT22;39812;52.430;16.936;2023-03-14T06:03:34;9.50;99.90
53904;DHT22;39812;52.430;16.936;2023-03-14T06:06:00;9.60;99.90
53904;DHT22;39812;52.430;16.936;2023-03-14T06:08:26;9.60;99.90
53904;DHT22;39812;52.430;16.936;2023-03-14T06:10:52;9.70;99.90
53904;DHT22;39812;52.430;16.936;2023-03-14T06:13:19;9.70;99.90
53904;DHT22;39812;52.430;16.936;2023-03-14T06:15:45;9.80;99.90
53904;DHT22;39812;52.430;16.936;2023-03-14T06:18:10;9.80;99.90
53904;DHT22;39812;52.430;16.936;2023-03-14T06:20:38;9.90;99.90
53904;DHT22;39812;52.430;16.936;2023-03-14T06:23:08;10.00;99.90
53904;DHT22;39812;52.430;16.936;2023-03-14T06:25:34;10.00;99.90
53904;DHT22;39812;52.430;16.936;2023-03-14T06:28:00;10.10;99.90
53904;DHT22;39812;52.430;16.936;2023-03-14T06:30:26;10.10;99.90
53904;DHT22;39812;52.430;16.936;2023-03-14T06:32:52;10.20;99.90
53904;DHT22;39812;52.430;16.936;2023-03-14T06:35:19;10.20;99.90
53904;DHT22;39812;52.430;16.936;2023-03-14T06:37:44;10.30;99.90
53904;DHT22;39812;52.430;16.936;2023-03-14T06:40:10;10.50;99.90
53904;DHT22;39812;52.430;16.936;2023-03-14T06:42:38;10.60;99.90
53904;DHT22;39812;52.430;16.936;2023-03-14T06:45:04;10.80;99.90
53904;DHT22;39812;52.430;16.936;2023-03-14T06:47:29;10.80;99.90
53904;DHT22;39812;52.430;16.936;2023-03-14T06:49:55;10.90;99.90
53904;DHT22;39812;52.430;16.936;2023-03-14T06:52:21;10.90;99.90
53904;DHT22;39812;52.430;16.936;2023-03-14T06:54:46;11.00;99.90
53904;DHT22;39812;52.430;16.936;2023-03-14T06:57:12;11.00;99.90
53904;DHT22;39812;52.430;16.936;2023-03-14T06:59:38;11.00;99.90
53904;DHT22;39812;52.430;16.936;2023-03-14T07:02:03;11.00;99.90
53904;DHT22;39812;52.430;16.936;2023-03-14T07:04:29;11.00;99.90
53904;DHT22;39812;52.430;16.936;2023-03-14T07:06:54;11.10;99.90
53904;DHT22;39812;52.430;16.936;2023-03-14T07:09:20;11.10;99.90
53904;DHT22;39812;52.430;16.936;2023-03-14T07:11:46;11.10;99.90
53904;DHT22;39812;52.430;16.936;2023-03-14T07:14:12;11.10;99.90
53904;DHT22;39812;52.430;16.936;2023-03-14T07:16:37;11.10;99.90
53904;DHT22;39812;52.430;16.936;2023-03-14T07:19:03;11.20;99.90
53904;DHT22;39812;52.430;16.936;2023-03-14T07:21:29;11.20;99.90
53904;DHT22;39812;52.430;16.936;2023-03-14T07:23:55;11.20;99.90
53904;DHT22;39812;52.430;16.936;2023-03-14T07:26:21;11.30;99.90
53904;DHT22;39812;52.430;16.936;2023-03-14T07:28:46;11.20;99.90
53904;DHT22;39812;52.430;16.936;2023-03-14T07:31:12;11.30;99.90
53904;DHT22;39812;52.430;16.936;2023-03-14T07:33:38;11.30;99.90
53904;DHT22;39812;52.430;16.936;2023-03-14T07:36:04;11.30;99.90
53904;DHT22;39812;52.430;16.936;2023-03-14T07:38:30;11.40;99.90
53904;DHT22;39812;52.430;16.936;2023-03-14T07:41:00;11.40;99.90
53904;DHT22;39812;52.430;16.936;2023-03-14T07:43:26;11.40;99.90
53904;DHT22;39812;52.430;16.936;2023-03-14T07:45:51;11.40;99.90
53904;DHT22;39812;52.430;16.936;2023-03-14T07:48:17;11.40;99.90
53904;DHT22;39812;52.430;16.936;2023-03-14T07:50:43;11.40;99.90
53904;DHT22;39812;52.430;16.936;2023-03-14T07:53:09;11.50;99.90
53904;DHT22;39812;52.430;16.936;2023-03-14T07:55:34;11.70;99.90
53904;DHT22;39812;52.430;16.936;2023-03-14T07:58:00;11.80;99.90
53904;DHT22;39812;52.430;16.936;2023-03-14T08:00:26;11.80;99.90
53904;DHT22;39812;52.430;16.936;2023-03-14T08:02:52;11.90;99.90
53904;DHT22;39812;52.430;16.936;2023-03-14T08:05:18;12.00;99.90
53904;DHT22;39812;52.430;16.936;2023-03-14T08:07:44;12.10;99.90
53904;DHT22;39812;52.430;16.936;2023-03-14T08:10:10;12.20;99.90
53904;DHT22;39812;52.430;16.936;2023-03-14T08:12:36;12.30;99.90
53904;DHT22;39812;52.430;16.936;2023-03-14T08:15:01;12.40;99.90
53904;DHT22;39812;52.430;16.936;2023-03-14T08:17:27;12.40;99.90
53904;DHT22;39812;52.430;16.936;2023-03-14T08:19:53;12.40;99.90
53904;DHT22;39812;52.430;16.936;2023-03-14T08:22:18;12.50;99.90
53904;DHT22;39812;52.430;16.936;2023-03-14T08:24:44;12.50;99.90
53904;DHT22;39812;52.430;16.936;2023-03-14T08:27:10;12.60;99.90
53904;DHT22;39812;52.430;16.936;2023-03-14T08:29:35;12.60;99.90
53904;DHT22;39812;52.430;16.936;2023-03-14T08:32:01;12.80;99.90
53904;DHT22;39812;52.430;16.936;2023-03-14T08:34:27;12.70;99.90
53904;DHT22;39812;52.430;16.936;2023-03-14T08:36:52;12.80;99.90
53904;DHT22;39812;52.430;16.936;2023-03-14T08:39:18;12.80;99.90
53904;DHT22;39812;52.430;16.936;2023-03-14T08:41:44;12.80;99.90
53904;DHT22;39812;52.430;16.936;2023-03-14T08:44:10;12.80;99.90
53904;DHT22;39812;52.430;16.936;2023-03-14T08:46:37;12.70;99.90
53904;DHT22;39812;52.430;16.936;2023-03-14T08:49:03;12.90;99.90
53904;DHT22;39812;52.430;16.936;2023-03-14T08:51:28;12.90;99.90
53904;DHT22;39812;52.430;16.936;2023-03-14T08:53:55;12.90;99.90
53904;DHT22;39812;52.430;16.936;2023-03-14T08:56:20;12.90;99.90
53904;DHT22;39812;52.430;16.936;2023-03-14T08:58:46;13.00;99.90
53904;DHT22;39812;52.430;16.936;2023-03-14T09:01:12;13.10;99.90
53904;DHT22;39812;52.430;16.936;2023-03-14T09:03:38;13.10;99.90
53904;DHT22;39812;52.430;16.936;2023-03-14T09:06:05;13.10;99.90
53904;DHT22;39812;52.430;16.936;2023-03-14T09:08:32;13.20;99.90
53904;DHT22;39812;52.430;16.936;2023-03-14T09:10:58;13.10;99.90
53904;DHT22;39812;52.430;16.936;2023-03-14T09:13:24;13.10;99.90
53904;DHT22;39812;52.430;16.936;2023-03-14T09:15:56;13.00;99.90
53904;DHT22;39812;52.430;16.936;2023-03-14T09:18:22;12.90;99.90
53904;DHT22;39812;52.430;16.936;2023-03-14T09:20:48;13.10;99.90
53904;DHT22;39812;52.430;16.936;2023-03-14T09:23:15;13.30;99.90
53904;DHT22;39812;52.430;16.936;2023-03-14T09:25:41;13.30;99.90
53904;DHT22;39812;52.430;16.936;2023-03-14T09:28:07;13.10;99.90
53904;DHT22;39812;52.430;16.936;2023-03-14T09:30:32;13.20;99.90
53904;DHT22;39812;52.430;16.936;2023-03-14T09:32:59;13.10;99.90
53904;DHT22;39812;52.430;16.936;2023-03-14T09:35:25;13.20;99.90
53904;DHT22;39812;52.430;16.936;2023-03-14T09:37:50;13.30;99.90
53904;DHT22;39812;52.430;16.936;2023-03-14T09:40:20;13.40;99.90
53904;DHT22;39812;52.430;16.936;2023-03-14T09:42:54;13.50;99.90
53904;DHT22;39812;52.430;16.936;2023-03-14T09:47:48;13.30;99.90
53904;DHT22;39812;52.430;16.936;2023-03-14T09:50:15;13.30;99.90
53904;DHT22;39812;52.430;16.936;2023-03-14T09:52:44;13.20;99.90
53904;DHT22;39812;52.430;16.936;2023-03-14T09:55:22;13.30;99.90
53904;DHT22;39812;52.430;16.936;2023-03-14T09:57:50;13.30;99.90
53904;DHT22;39812;52.430;16.936;2023-03-14T10:00:26;13.40;99.90
53904;DHT22;39812;52.430;16.936;2023-03-14T10:05:42;13.60;99.90
53904;DHT22;39812;52.430;16.936;2023-03-14T10:08:12;13.80;99.90
53904;DHT22;39812;52.430;16.936;2023-03-14T10:10:38;14.00;99.90
53904;DHT22;39812;52.430;16.936;2023-03-14T10:13:17;14.00;99.90
53904;DHT22;39812;52.430;16.936;2023-03-14T10:15:50;14.00;99.90
53904;DHT22;39812;52.430;16.936;2023-03-14T10:18:16;14.30;99.90
53904;DHT22;39812;52.430;16.936;2023-03-14T10:20:48;14.30;99.90
53904;DHT22;39812;52.430;16.936;2023-03-14T10:25:46;14.40;99.90
53904;DHT22;39812;52.430;16.936;2023-03-14T10:28:25;14.70;99.90
53904;DHT22;39812;52.430;16.936;2023-03-14T10:30:51;14.70;99.90
53904;DHT22;39812;52.430;16.936;2023-03-14T10:33:21;14.90;99.90
53904;DHT22;39812;52.430;16.936;2023-03-14T10:36:00;14.80;99.90
53904;DHT22;39812;52.430;16.936;2023-03-14T10:38:32;14.90;99.90
53904;DHT22;39812;52.430;16.936;2023-03-14T10:40:59;14.80;99.90
53904;DHT22;39812;52.430;16.936;2023-03-14T10:43:32;14.80;99.90
53904;DHT22;39812;52.430;16.936;2023-03-14T10:46:02;14.80;99.90
53904;DHT22;39812;52.430;16.936;2023-03-14T10:48:37;14.60;99.90
53904;DHT22;39812;52.430;16.936;2023-03-14T10:51:30;14.70;99.90
53904;DHT22;39812;52.430;16.936;2023-03-14T10:54:09;14.40;99.90
53904;DHT22;39812;52.430;16.936;2023-03-14T10:56:40;14.30;99.90
53904;DHT22;39812;52.430;16.936;2023-03-14T10:59:15;14.30;99.90
53904;DHT22;39812;52.430;16.936;2023-03-14T11:01:59;14.10;99.90
53904;DHT22;39812;52.430;16.936;2023-03-14T11:04:31;14.30;99.90
53904;DHT22;39812;52.430;16.936;2023-03-14T11:10:19;14.20;99.90
53904;DHT22;39812;52.430;16.936;2023-03-14T11:18:18;14.50;99.90
53904;DHT22;39812;52.430;16.936;2023-03-14T11:28:51;14.70;99.90
53904;DHT22;39812;52.430;16.936;2023-03-14T11:31:29;15.00;99.90
53904;DHT22;39812;52.430;16.936;2023-03-14T11:39:24;15.30;99.90
53904;DHT22;39812;52.430;16.936;2023-03-14T11:41:53;15.40;99.90
53904;DHT22;39812;52.430;16.936;2023-03-14T11:44:39;15.60;99.90
53904;DHT22;39812;52.430;16.936;2023-03-14T11:49:50;14.80;99.90
53904;DHT22;39812;52.430;16.936;2023-03-14T11:55:05;15.20;99.90
53904;DHT22;39812;52.430;16.936;2023-03-14T11:57:32;15.90;99.90
53904;DHT22;39812;52.430;16.936;2023-03-14T12:00:21;15.80;99.90
53904;DHT22;39812;52.430;16.936;2023-03-14T12:03:14;15.70;99.90
53904;DHT22;39812;52.430;16.936;2023-03-14T12:14:29;14.50;99.90
53904;DHT22;39812;52.430;16.936;2023-03-14T12:19:31;14.40;99.90
53904;DHT22;39812;52.430;16.936;2023-03-14T12:24:50;14.50;99.90
53904;DHT22;39812;52.430;16.936;2023-03-14T12:30:38;15.80;99.90
53904;DHT22;39812;52.430;16.936;2023-03-14T12:33:11;15.60;99.90
53904;DHT22;39812;52.430;16.936;2023-03-14T12:38:14;15.20;99.90
53904;DHT22;39812;52.430;16.936;2023-03-14T12:43:39;14.80;99.00
53904;DHT22;39812;52.430;16.936;2023-03-14T12:51:35;14.70;98.70
53904;DHT22;39812;52.430;16.936;2023-03-14T13:03:13;15.80;97.00
53904;DHT22;39812;52.430;16.936;2023-03-14T13:05:20;16.70;95.50
53904;DHT22;39812;52.430;16.936;2023-03-14T13:10:27;18.30;92.00
53904;DHT22;39812;52.430;16.936;2023-03-14T13:13:03;19.70;89.40
53904;DHT22;39812;52.430;16.936;2023-03-14T13:15:40;20.80;83.20
53904;DHT22;39812;52.430;16.936;2023-03-14T13:20:46;22.30;74.20
53904;DHT22;39812;52.430;16.936;2023-03-14T13:23:25;22.70;70.30
53904;DHT22;39812;52.430;16.936;2023-03-14T13:25:51;22.70;68.40
53904;DHT22;39812;52.430;16.936;2023-03-14T13:28:17;22.60;68.20
53904;DHT22;39812;52.430;16.936;2023-03-14T13:30:45;21.60;67.20
53904;DHT22;39812;52.430;16.936;2023-03-14T13:33:22;19.10;71.10
53904;DHT22;39812;52.430;16.936;2023-03-14T13:36:02;17.00;77.00
53904;DHT22;39812;52.430;16.936;2023-03-14T13:38:31;16.30;81.80
53904;DHT22;39812;52.430;16.936;2023-03-14T13:40:59;16.30;83.60
53904;DHT22;39812;52.430;16.936;2023-03-14T13:43:27;16.30;84.30
53904;DHT22;39812;52.430;16.936;2023-03-14T13:45:56;16.10;84.70
53904;DHT22;39812;52.430;16.936;2023-03-14T13:48:26;16.20;85.70
53904;DHT22;39812;52.430;16.936;2023-03-14T13:50:56;16.50;85.40
53904;DHT22;39812;52.430;16.936;2023-03-14T13:53:24;16.30;86.60
53904;DHT22;39812;52.430;16.936;2023-03-14T13:55:50;15.70;89.20
53904;DHT22;39812;52.430;16.936;2023-03-14T13:58:26;15.30;90.90
53904;DHT22;39812;52.430;16.936;2023-03-14T14:01:01;15.30;91.80
53904;DHT22;39812;52.430;16.936;2023-03-14T14:03:29;15.00;92.50
53904;DHT22;39812;52.430;16.936;2023-03-14T14:05:56;14.80;93.40
53904;DHT22;39812;52.430;16.936;2023-03-14T14:08:24;14.70;94.30
53904;DHT22;39812;52.430;16.936;2023-03-14T14:10:50;14.60;94.80
53904;DHT22;39812;52.430;16.936;2023-03-14T14:13:20;14.60;94.40
53904;DHT22;39812;52.430;16.936;2023-03-14T14:15:49;14.50;94.50
53904;DHT22;39812;52.430;16.936;2023-03-14T14:18:18;14.50;94.60
53904;DHT22;39812;52.430;16.936;2023-03-14T14:20:47;14.60;94.20
53904;DHT22;39812;52.430;16.936;2023-03-14T14:23:17;14.70;93.90
53904;DHT22;39812;52.430;16.936;2023-03-14T14:25:45;14.70;93.60
53904;DHT22;39812;52.430;16.936;2023-03-14T14:33:43;14.10;94.80
53904;DHT22;39812;52.430;16.936;2023-03-14T14:36:38;14.00;95.30
53904;DHT22;39812;52.430;16.936;2023-03-14T14:41:42;13.90;95.90
53904;DHT22;39812;52.430;16.936;2023-03-14T14:44:12;13.90;95.80
53904;DHT22;39812;52.430;16.936;2023-03-14T14:46:38;14.00;95.40
53904;DHT22;39812;52.430;16.936;2023-03-14T14:49:09;13.80;95.70
53904;DHT22;39812;52.430;16.936;2023-03-14T14:51:46;13.90;96.00
53904;DHT22;39812;52.430;16.936;2023-03-14T14:54:16;13.50;97.00
53904;DHT22;39812;52.430;16.936;2023-03-14T14:56:50;13.20;98.10
53904;DHT22;39812;52.430;16.936;2023-03-14T14:59:30;13.30;99.50
53904;DHT22;39812;52.430;16.936;2023-03-14T15:02:01;13.30;99.90
53904;DHT22;39812;52.430;16.936;2023-03-14T15:04:30;13.40;99.90
53904;DHT22;39812;52.430;16.936;2023-03-14T15:06:56;13.50;99.90
53904;DHT22;39812;52.430;16.936;2023-03-14T15:09:22;13.60;99.90
53904;DHT22;39812;52.430;16.936;2023-03-14T15:11:48;13.50;99.90
53904;DHT22;39812;52.430;16.936;2023-03-14T15:14:15;13.40;99.90
53904;DHT22;39812;52.430;16.936;2023-03-14T15:16:41;13.30;99.90
53904;DHT22;39812;52.430;16.936;2023-03-14T15:19:20;13.20;99.90
53904;DHT22;39812;52.430;16.936;2023-03-14T15:21:46;13.20;99.90
53904;DHT22;39812;52.430;16.936;2023-03-14T15:24:12;14.00;99.90
53904;DHT22;39812;52.430;16.936;2023-03-14T15:26:38;16.80;98.60
53904;DHT22;39812;52.430;16.936;2023-03-14T15:29:04;19.40;93.20
53904;DHT22;39812;52.430;16.936;2023-03-14T15:31:34;18.90;91.40
53904;DHT22;39812;52.430;16.936;2023-03-14T15:33:59;17.50;92.20
53904;DHT22;39812;52.430;16.936;2023-03-14T15:36:30;18.90;92.80
53904;DHT22;39812;52.430;16.936;2023-03-14T15:38:57;18.60;90.60
53904;DHT22;39812;52.430;16.936;2023-03-14T15:41:24;17.20;92.60
53904;DHT22;39812;52.430;16.936;2023-03-14T15:43:50;16.20;94.10
53904;DHT22;39812;52.430;16.936;2023-03-14T15:46:17;15.50;95.40
53904;DHT22;39812;52.430;16.936;2023-03-14T15:48:44;14.90;97.00
53904;DHT22;39812;52.430;16.936;2023-03-14T15:51:10;14.60;98.00
53904;DHT22;39812;52.430;16.936;2023-03-14T15:53:36;15.50;98.00
53904;DHT22;39812;52.430;16.936;2023-03-14T15:56:04;14.80;97.40
53904;DHT22;39812;52.430;16.936;2023-03-14T15:58:29;14.50;98.50
53904;DHT22;39812;52.430;16.936;2023-03-14T16:01:02;14.10;98.80
53904;DHT22;39812;52.430;16.936;2023-03-14T16:03:28;14.10;99.40
53904;DHT22;39812;52.430;16.936;2023-03-14T16:05:55;13.80;99.70
53904;DHT22;39812;52.430;16.936;2023-03-14T16:08:22;13.60;99.90
53904;DHT22;39812;52.430;16.936;2023-03-14T16:10:48;13.40;99.90
53904;DHT22;39812;52.430;16.936;2023-03-14T16:13:14;13.30;99.90
53904;DHT22;39812;52.430;16.936;2023-03-14T16:15:40;13.10;99.90
53904;DHT22;39812;52.430;16.936;2023-03-14T16:18:06;13.10;99.90
53904;DHT22;39812;52.430;16.936;2023-03-14T16:20:31;13.10;99.90
53904;DHT22;39812;52.430;16.936;2023-03-14T16:22:57;13.10;99.90
53904;DHT22;39812;52.430;16.936;2023-03-14T16:25:23;13.00;99.90
53904;DHT22;39812;52.430;16.936;2023-03-14T16:27:48;13.00;99.90
53904;DHT22;39812;52.430;16.936;2023-03-14T16:30:14;13.00;99.90
53904;DHT22;39812;52.430;16.936;2023-03-14T16:32:40;13.50;99.90
53904;DHT22;39812;52.430;16.936;2023-03-14T16:35:06;13.40;99.90
53904;DHT22;39812;52.430;16.936;2023-03-14T16:37:32;13.30;99.90
53904;DHT22;39812;52.430;16.936;2023-03-14T16:39:58;13.10;99.90
53904;DHT22;39812;52.430;16.936;2023-03-14T16:42:24;12.90;99.90
53904;DHT22;39812;52.430;16.936;2023-03-14T16:44:49;12.80;99.90
53904;DHT22;39812;52.430;16.936;2023-03-14T16:47:15;12.70;99.90
53904;DHT22;39812;52.430;16.936;2023-03-14T16:49:41;12.60;99.90
53904;DHT22;39812;52.430;16.936;2023-03-14T16:52:06;12.50;99.90